sensor_id;sensor_type;location;lat;lon;timestamp;P1;durP1;ratioP1;P2;durP2;ratioP2
30647;SDS011;17683;53.360;9.736;2024-02-21T00:02:19;52.08;;;21.20;;
30647;SDS011;17683;53.360;9.736;2024-02-21T00:04:44;41.30;;;20.67;;
30647;SDS011;17683;53.360;9.736;2024-02-21T00:07:11;34.85;;;19.75;;
30647;SDS011;17683;53.360;9.736;2024-02-21T00:09:36;40.38;;;20.73;;
30647;SDS011;17683;53.360;9.736;2024-02-21T00:12:02;44.22;;;19.85;;
30647;SDS011;17683;53.360;9.736;2024-02-21T00:14:28;44.53;;;20.33;;
30647;SDS011;17683;53.360;9.736;2024-02-21T00:16:54;38.03;;;22.02;;
30647;SDS011;17683;53.360;9.736;2024-02-21T00:19:19;45.30;;;19.70;;
30647;SDS011;17683;53.360;9.736;2024-02-21T00:21:46;36.88;;;21.15;;
30647;SDS011;17683;53.360;9.736;2024-02-21T00:24:11;37.47;;;20.30;;
30647;SDS011;17683;53.360;9.736;2024-02-21T00:26:37;39.10;;;20.60;;
30647;SDS011;17683;53.360;9.736;2024-02-21T00:29:03;46.17;;;22.42;;
30647;SDS011;17683;53.360;9.736;2024-02-21T00:31:30;40.35;;;20.75;;
30647;SDS011;17683;53.360;9.736;2024-02-21T00:33:56;37.97;;;19.52;;
30647;SDS011;17683;53.360;9.736;2024-02-21T00:36:22;34.78;;;20.30;;
30647;SDS011;17683;53.360;9.736;2024-02-21T00:38:48;36.67;;;21.85;;
30647;SDS011;17683;53.360;9.736;2024-02-21T00:41:14;51.85;;;21.85;;
30647;SDS011;17683;53.360;9.736;2024-02-21T00:43:40;44.33;;;21.08;;
30647;SDS011;17683;53.360;9.736;2024-02-21T00:46:06;38.95;;;22.42;;
30647;SDS011;17683;53.360;9.736;2024-02-21T00:48:32;39.95;;;21.55;;
30647;SDS011;17683;53.360;9.736;2024-02-21T00:50:59;43.95;;;21.92;;
30647;SDS011;17683;53.360;9.736;2024-02-21T00:53:25;38.95;;;21.73;;
30647;SDS011;17683;53.360;9.736;2024-02-21T00:55:50;40.38;;;22.23;;
30647;SDS011;17683;53.360;9.736;2024-02-21T00:58:16;50.70;;;23.50;;
30647;SDS011;17683;53.360;9.736;2024-02-21T01:00:42;40.00;;;22.20;;
30647;SDS011;17683;53.360;9.736;2024-02-21T01:03:07;42.50;;;23.70;;
30647;SDS011;17683;53.360;9.736;2024-02-21T01:05:33;36.95;;;22.20;;
30647;SDS011;17683;53.360;9.736;2024-02-21T01:07:59;41.50;;;22.95;;
30647;SDS011;17683;53.360;9.736;2024-02-21T01:10:25;44.15;;;22.27;;
30647;SDS011;17683;53.360;9.736;2024-02-21T01:12:50;40.85;;;21.83;;
30647;SDS011;17683;53.360;9.736;2024-02-21T01:15:16;44.58;;;23.55;;
30647;SDS011;17683;53.360;9.736;2024-02-21T01:17:42;42.88;;;22.67;;
30647;SDS011;17683;53.360;9.736;2024-02-21T01:20:08;39.75;;;21.88;;
30647;SDS011;17683;53.360;9.736;2024-02-21T01:22:34;37.75;;;22.20;;
30647;SDS011;17683;53.360;9.736;2024-02-21T01:25:00;42.00;;;22.30;;
30647;SDS011;17683;53.360;9.736;2024-02-21T01:27:25;46.00;;;23.00;;
30647;SDS011;17683;53.360;9.736;2024-02-21T01:29:51;43.42;;;23.08;;
30647;SDS011;17683;53.360;9.736;2024-02-21T01:32:17;40.72;;;22.33;;
30647;SDS011;17683;53.360;9.736;2024-02-21T01:34:43;42.75;;;23.23;;
30647;SDS011;17683;53.360;9.736;2024-02-21T01:37:08;41.63;;;23.10;;
30647;SDS011;17683;53.360;9.736;2024-02-21T01:39:34;48.58;;;24.50;;
30647;SDS011;17683;53.360;9.736;2024-02-21T01:42:00;43.50;;;23.17;;
30647;SDS011;17683;53.360;9.736;2024-02-21T01:44:26;41.83;;;24.10;;
30647;SDS011;17683;53.360;9.736;2024-02-21T01:46:54;47.05;;;23.52;;
30647;SDS011;17683;53.360;9.736;2024-02-21T01:49:20;41.55;;;22.88;;
30647;SDS011;17683;53.360;9.736;2024-02-21T01:51:47;49.28;;;23.40;;
30647;SDS011;17683;53.360;9.736;2024-02-21T01:54:14;42.85;;;23.63;;
30647;SDS011;17683;53.360;9.736;2024-02-21T01:56:44;50.70;;;24.73;;
30647;SDS011;17683;53.360;9.736;2024-02-21T01:59:11;47.20;;;25.02;;
30647;SDS011;17683;53.360;9.736;2024-02-21T02:01:38;47.97;;;25.73;;
30647;SDS011;17683;53.360;9.736;2024-02-21T02:04:05;46.17;;;26.30;;
30647;SDS011;17683;53.360;9.736;2024-02-21T02:06:31;41.58;;;24.48;;
30647;SDS011;17683;53.360;9.736;2024-02-21T02:08:57;49.40;;;27.85;;
30647;SDS011;17683;53.360;9.736;2024-02-21T02:11:23;45.05;;;26.70;;
30647;SDS011;17683;53.360;9.736;2024-02-21T02:13:49;63.95;;;27.73;;
30647;SDS011;17683;53.360;9.736;2024-02-21T02:16:14;51.45;;;28.00;;
30647;SDS011;17683;53.360;9.736;2024-02-21T02:18:40;50.65;;;26.58;;
30647;SDS011;17683;53.360;9.736;2024-02-21T02:21:21;58.15;;;27.50;;
30647;SDS011;17683;53.360;9.736;2024-02-21T02:23:54;47.47;;;26.80;;
30647;SDS011;17683;53.360;9.736;2024-02-21T02:26:20;47.90;;;27.35;;
30647;SDS011;17683;53.360;9.736;2024-02-21T02:28:46;51.70;;;28.77;;
30647;SDS011;17683;53.360;9.736;2024-02-21T02:31:11;50.67;;;27.50;;
30647;SDS011;17683;53.360;9.736;2024-02-21T02:33:37;50.00;;;27.67;;
30647;SDS011;17683;53.360;9.736;2024-02-21T02:36:03;54.72;;;29.00;;
30647;SDS011;17683;53.360;9.736;2024-02-21T02:38:29;52.53;;;26.63;;
30647;SDS011;17683;53.360;9.736;2024-02-21T02:40:55;44.55;;;26.40;;
30647;SDS011;17683;53.360;9.736;2024-02-21T02:43:20;59.15;;;27.27;;
30647;SDS011;17683;53.360;9.736;2024-02-21T02:45:46;54.15;;;27.10;;
30647;SDS011;17683;53.360;9.736;2024-02-21T02:48:12;58.20;;;28.52;;
30647;SDS011;17683;53.360;9.736;2024-02-21T02:50:37;59.35;;;28.85;;
30647;SDS011;17683;53.360;9.736;2024-02-21T02:53:03;48.08;;;26.33;;
30647;SDS011;17683;53.360;9.736;2024-02-21T02:55:29;43.60;;;24.67;;
30647;SDS011;17683;53.360;9.736;2024-02-21T02:57:55;54.70;;;26.17;;
30647;SDS011;17683;53.360;9.736;2024-02-21T03:00:21;49.22;;;26.00;;
30647;SDS011;17683;53.360;9.736;2024-02-21T03:02:48;49.15;;;25.80;;
30647;SDS011;17683;53.360;9.736;2024-02-21T03:05:21;46.75;;;25.42;;
30647;SDS011;17683;53.360;9.736;2024-02-21T03:07:47;49.63;;;25.65;;
30647;SDS011;17683;53.360;9.736;2024-02-21T03:10:14;44.35;;;24.98;;
30647;SDS011;17683;53.360;9.736;2024-02-21T03:12:43;44.35;;;23.42;;
30647;SDS011;17683;53.360;9.736;2024-02-21T03:15:09;49.95;;;24.52;;
30647;SDS011;17683;53.360;9.736;2024-02-21T03:17:35;53.05;;;24.25;;
30647;SDS011;17683;53.360;9.736;2024-02-21T03:20:01;45.08;;;24.65;;
30647;SDS011;17683;53.360;9.736;2024-02-21T03:22:33;44.05;;;23.50;;
30647;SDS011;17683;53.360;9.736;2024-02-21T03:24:59;46.53;;;24.60;;
30647;SDS011;17683;53.360;9.736;2024-02-21T03:27:26;41.65;;;23.25;;
30647;SDS011;17683;53.360;9.736;2024-02-21T03:29:51;37.85;;;22.73;;
30647;SDS011;17683;53.360;9.736;2024-02-21T03:32:17;47.28;;;23.30;;
30647;SDS011;17683;53.360;9.736;2024-02-21T03:34:43;53.72;;;24.58;;
30647;SDS011;17683;53.360;9.736;2024-02-21T03:37:09;38.70;;;21.08;;
30647;SDS011;17683;53.360;9.736;2024-02-21T03:39:34;45.10;;;23.67;;
30647;SDS011;17683;53.360;9.736;2024-02-21T03:42:00;42.30;;;21.85;;
30647;SDS011;17683;53.360;9.736;2024-02-21T03:44:29;42.88;;;23.80;;
30647;SDS011;17683;53.360;9.736;2024-02-21T03:46:56;41.35;;;22.65;;
30647;SDS011;17683;53.360;9.736;2024-02-21T03:49:22;43.85;;;21.98;;
30647;SDS011;17683;53.360;9.736;2024-02-21T03:51:47;50.85;;;23.33;;
30647;SDS011;17683;53.360;9.736;2024-02-21T03:54:13;38.53;;;23.35;;
30647;SDS011;17683;53.360;9.736;2024-02-21T03:56:39;51.92;;;23.98;;
30647;SDS011;17683;53.360;9.736;2024-02-21T03:59:05;48.22;;;24.08;;
30647;SDS011;17683;53.360;9.736;2024-02-21T04:01:34;42.65;;;22.75;;
30647;SDS011;17683;53.360;9.736;2024-02-21T04:04:01;43.58;;;22.80;;
30647;SDS011;17683;53.360;9.736;2024-02-21T04:06:27;37.65;;;21.73;;
30647;SDS011;17683;53.360;9.736;2024-02-21T04:08:52;50.33;;;25.45;;
30647;SDS011;17683;53.360;9.736;2024-02-21T04:11:18;38.38;;;22.15;;
30647;SDS011;17683;53.360;9.736;2024-02-21T04:13:44;54.00;;;26.58;;
30647;SDS011;17683;53.360;9.736;2024-02-21T04:16:13;50.63;;;24.63;;
30647;SDS011;17683;53.360;9.736;2024-02-21T04:18:40;43.88;;;25.73;;
30647;SDS011;17683;53.360;9.736;2024-02-21T04:21:05;44.97;;;24.10;;
30647;SDS011;17683;53.360;9.736;2024-02-21T04:23:31;42.55;;;24.48;;
30647;SDS011;17683;53.360;9.736;2024-02-21T04:25:57;44.58;;;26.80;;
30647;SDS011;17683;53.360;9.736;2024-02-21T04:28:23;38.30;;;23.52;;
30647;SDS011;17683;53.360;9.736;2024-02-21T04:30:48;49.92;;;24.63;;
30647;SDS011;17683;53.360;9.736;2024-02-21T04:33:14;43.80;;;24.38;;
30647;SDS011;17683;53.360;9.736;2024-02-21T04:35:40;41.67;;;23.25;;
30647;SDS011;17683;53.360;9.736;2024-02-21T04:38:06;44.47;;;24.55;;
30647;SDS011;17683;53.360;9.736;2024-02-21T04:40:31;48.75;;;25.33;;
30647;SDS011;17683;53.360;9.736;2024-02-21T04:42:57;44.70;;;24.50;;
30647;SDS011;17683;53.360;9.736;2024-02-21T04:45:23;47.42;;;24.67;;
30647;SDS011;17683;53.360;9.736;2024-02-21T04:47:49;43.92;;;24.80;;
30647;SDS011;17683;53.360;9.736;2024-02-21T04:50:15;40.25;;;24.90;;
30647;SDS011;17683;53.360;9.736;2024-02-21T04:52:41;45.80;;;23.50;;
30647;SDS011;17683;53.360;9.736;2024-02-21T04:55:07;42.55;;;24.10;;
30647;SDS011;17683;53.360;9.736;2024-02-21T04:57:33;39.75;;;22.20;;
30647;SDS011;17683;53.360;9.736;2024-02-21T04:59:59;45.83;;;23.15;;
30647;SDS011;17683;53.360;9.736;2024-02-21T05:02:24;36.00;;;22.55;;
30647;SDS011;17683;53.360;9.736;2024-02-21T05:04:52;39.92;;;23.80;;
30647;SDS011;17683;53.360;9.736;2024-02-21T05:07:18;39.03;;;23.33;;
30647;SDS011;17683;53.360;9.736;2024-02-21T05:09:44;36.78;;;21.25;;
30647;SDS011;17683;53.360;9.736;2024-02-21T05:12:10;36.78;;;22.33;;
30647;SDS011;17683;53.360;9.736;2024-02-21T05:14:36;40.63;;;22.52;;
30647;SDS011;17683;53.360;9.736;2024-02-21T05:17:02;38.15;;;21.33;;
30647;SDS011;17683;53.360;9.736;2024-02-21T05:19:29;39.33;;;21.58;;
30647;SDS011;17683;53.360;9.736;2024-02-21T05:21:55;34.13;;;21.13;;
30647;SDS011;17683;53.360;9.736;2024-02-21T05:24:20;34.47;;;21.00;;
30647;SDS011;17683;53.360;9.736;2024-02-21T05:26:46;29.65;;;19.48;;
30647;SDS011;17683;53.360;9.736;2024-02-21T05:29:12;37.10;;;19.65;;
30647;SDS011;17683;53.360;9.736;2024-02-21T05:34:16;33.90;;;19.27;;
30647;SDS011;17683;53.360;9.736;2024-02-21T05:36:42;34.42;;;17.75;;
30647;SDS011;17683;53.360;9.736;2024-02-21T05:39:09;26.77;;;18.50;;
30647;SDS011;17683;53.360;9.736;2024-02-21T05:41:35;26.00;;;17.25;;
30647;SDS011;17683;53.360;9.736;2024-02-21T05:44:01;25.25;;;16.70;;
30647;SDS011;17683;53.360;9.736;2024-02-21T05:46:26;26.60;;;18.08;;
30647;SDS011;17683;53.360;9.736;2024-02-21T05:48:52;28.25;;;17.08;;
30647;SDS011;17683;53.360;9.736;2024-02-21T05:51:18;23.27;;;16.23;;
30647;SDS011;17683;53.360;9.736;2024-02-21T05:53:44;21.65;;;15.65;;
30647;SDS011;17683;53.360;9.736;2024-02-21T05:56:13;21.88;;;16.00;;
30647;SDS011;17683;53.360;9.736;2024-02-21T05:58:39;21.95;;;15.38;;
30647;SDS011;17683;53.360;9.736;2024-02-21T06:01:05;23.50;;;15.57;;
30647;SDS011;17683;53.360;9.736;2024-02-21T06:03:34;23.42;;;15.38;;
30647;SDS011;17683;53.360;9.736;2024-02-21T06:06:01;24.25;;;15.15;;
30647;SDS011;17683;53.360;9.736;2024-02-21T06:08:28;25.15;;;15.65;;
30647;SDS011;17683;53.360;9.736;2024-02-21T06:10:54;25.95;;;14.68;;
30647;SDS011;17683;53.360;9.736;2024-02-21T06:13:26;25.98;;;16.48;;
30647;SDS011;17683;53.360;9.736;2024-02-21T06:15:52;23.00;;;15.48;;
30647;SDS011;17683;53.360;9.736;2024-02-21T06:18:18;22.80;;;15.40;;
30647;SDS011;17683;53.360;9.736;2024-02-21T06:20:45;25.45;;;15.80;;
30647;SDS011;17683;53.360;9.736;2024-02-21T06:23:11;21.40;;;14.98;;
30647;SDS011;17683;53.360;9.736;2024-02-21T06:25:41;20.00;;;14.63;;
30647;SDS011;17683;53.360;9.736;2024-02-21T06:28:07;21.00;;;13.82;;
30647;SDS011;17683;53.360;9.736;2024-02-21T06:30:34;19.33;;;14.40;;
30647;SDS011;17683;53.360;9.736;2024-02-21T06:33:00;25.83;;;14.95;;
30647;SDS011;17683;53.360;9.736;2024-02-21T06:35:27;23.60;;;14.63;;
30647;SDS011;17683;53.360;9.736;2024-02-21T06:37:54;23.63;;;15.15;;
30647;SDS011;17683;53.360;9.736;2024-02-21T06:40:21;18.52;;;13.55;;
30647;SDS011;17683;53.360;9.736;2024-02-21T06:42:48;19.48;;;13.70;;
30647;SDS011;17683;53.360;9.736;2024-02-21T06:45:15;19.80;;;13.23;;
30647;SDS011;17683;53.360;9.736;2024-02-21T06:47:41;21.10;;;14.93;;
30647;SDS011;17683;53.360;9.736;2024-02-21T06:50:08;20.27;;;14.32;;
30647;SDS011;17683;53.360;9.736;2024-02-21T06:52:34;19.23;;;14.07;;
30647;SDS011;17683;53.360;9.736;2024-02-21T06:55:01;20.27;;;14.32;;
30647;SDS011;17683;53.360;9.736;2024-02-21T06:57:28;18.25;;;13.10;;
30647;SDS011;17683;53.360;9.736;2024-02-21T06:59:54;19.00;;;13.07;;
30647;SDS011;17683;53.360;9.736;2024-02-21T07:02:19;15.80;;;12.07;;
30647;SDS011;17683;53.360;9.736;2024-02-21T07:04:45;18.13;;;12.65;;
30647;SDS011;17683;53.360;9.736;2024-02-21T07:07:11;15.07;;;11.32;;
30647;SDS011;17683;53.360;9.736;2024-02-21T07:09:37;15.88;;;11.07;;
30647;SDS011;17683;53.360;9.736;2024-02-21T07:12:03;17.08;;;11.52;;
30647;SDS011;17683;53.360;9.736;2024-02-21T07:14:29;16.85;;;12.27;;
30647;SDS011;17683;53.360;9.736;2024-02-21T07:16:57;12.68;;;10.50;;
30647;SDS011;17683;53.360;9.736;2024-02-21T07:19:23;15.10;;;11.68;;
30647;SDS011;17683;53.360;9.736;2024-02-21T07:21:48;12.38;;;9.93;;
30647;SDS011;17683;53.360;9.736;2024-02-21T07:24:14;15.80;;;10.73;;
30647;SDS011;17683;53.360;9.736;2024-02-21T07:26:43;14.48;;;10.43;;
30647;SDS011;17683;53.360;9.736;2024-02-21T07:29:10;13.45;;;9.68;;
30647;SDS011;17683;53.360;9.736;2024-02-21T07:31:40;13.73;;;10.93;;
30647;SDS011;17683;53.360;9.736;2024-02-21T07:34:06;13.52;;;10.15;;
30647;SDS011;17683;53.360;9.736;2024-02-21T07:36:32;14.18;;;8.90;;
30647;SDS011;17683;53.360;9.736;2024-02-21T07:38:57;13.88;;;9.27;;
30647;SDS011;17683;53.360;9.736;2024-02-21T07:41:24;12.75;;;9.70;;
30647;SDS011;17683;53.360;9.736;2024-02-21T07:43:50;11.75;;;8.77;;
30647;SDS011;17683;53.360;9.736;2024-02-21T07:46:17;12.50;;;9.48;;
30647;SDS011;17683;53.360;9.736;2024-02-21T07:48:46;11.43;;;8.57;;
30647;SDS011;17683;53.360;9.736;2024-02-21T07:51:12;11.50;;;8.43;;
30647;SDS011;17683;53.360;9.736;2024-02-21T07:53:41;11.73;;;8.38;;
30647;SDS011;17683;53.360;9.736;2024-02-21T07:56:10;12.70;;;8.52;;
30647;SDS011;17683;53.360;9.736;2024-02-21T07:58:40;12.80;;;9.52;;
30647;SDS011;17683;53.360;9.736;2024-02-21T08:01:06;10.82;;;9.10;;
30647;SDS011;17683;53.360;9.736;2024-02-21T08:03:32;10.05;;;8.35;;
30647;SDS011;17683;53.360;9.736;2024-02-21T08:05:58;12.10;;;9.02;;
30647;SDS011;17683;53.360;9.736;2024-02-21T08:08:23;11.88;;;8.75;;
30647;SDS011;17683;53.360;9.736;2024-02-21T08:10:50;12.88;;;9.35;;
30647;SDS011;17683;53.360;9.736;2024-02-21T08:13:15;10.73;;;8.82;;
30647;SDS011;17683;53.360;9.736;2024-02-21T08:15:41;10.93;;;8.52;;
30647;SDS011;17683;53.360;9.736;2024-02-21T08:18:07;13.57;;;9.68;;
30647;SDS011;17683;53.360;9.736;2024-02-21T08:20:34;11.75;;;8.85;;
30647;SDS011;17683;53.360;9.736;2024-02-21T08:23:00;13.63;;;9.68;;
30647;SDS011;17683;53.360;9.736;2024-02-21T08:25:26;11.90;;;8.98;;
30647;SDS011;17683;53.360;9.736;2024-02-21T08:27:53;11.95;;;8.32;;
30647;SDS011;17683;53.360;9.736;2024-02-21T08:30:27;10.02;;;7.80;;
30647;SDS011;17683;53.360;9.736;2024-02-21T08:32:53;10.52;;;8.35;;
30647;SDS011;17683;53.360;9.736;2024-02-21T08:35:20;11.02;;;8.57;;
30647;SDS011;17683;53.360;9.736;2024-02-21T08:37:49;9.60;;;8.05;;
30647;SDS011;17683;53.360;9.736;2024-02-21T08:40:15;12.35;;;8.77;;
30647;SDS011;17683;53.360;9.736;2024-02-21T08:42:46;10.57;;;8.38;;
30647;SDS011;17683;53.360;9.736;2024-02-21T08:45:12;12.65;;;8.57;;
30647;SDS011;17683;53.360;9.736;2024-02-21T08:47:41;12.88;;;10.05;;
30647;SDS011;17683;53.360;9.736;2024-02-21T08:50:07;16.23;;;9.38;;
30647;SDS011;17683;53.360;9.736;2024-02-21T08:52:35;15.85;;;9.93;;
30647;SDS011;17683;53.360;9.736;2024-02-21T08:55:00;11.63;;;9.43;;
30647;SDS011;17683;53.360;9.736;2024-02-21T08:57:27;12.18;;;9.05;;
30647;SDS011;17683;53.360;9.736;2024-02-21T08:59:52;16.02;;;9.95;;
30647;SDS011;17683;53.360;9.736;2024-02-21T09:02:18;11.40;;;9.27;;
30647;SDS011;17683;53.360;9.736;2024-02-21T09:04:44;14.63;;;10.10;;
30647;SDS011;17683;53.360;9.736;2024-02-21T09:07:10;14.70;;;10.60;;
30647;SDS011;17683;53.360;9.736;2024-02-21T09:09:36;13.27;;;9.88;;
30647;SDS011;17683;53.360;9.736;2024-02-21T09:12:08;13.80;;;11.10;;
30647;SDS011;17683;53.360;9.736;2024-02-21T09:14:34;14.90;;;11.75;;
30647;SDS011;17683;53.360;9.736;2024-02-21T09:17:03;16.20;;;11.07;;
30647;SDS011;17683;53.360;9.736;2024-02-21T09:19:29;14.18;;;11.55;;
30647;SDS011;17683;53.360;9.736;2024-02-21T09:21:54;18.10;;;13.23;;
30647;SDS011;17683;53.360;9.736;2024-02-21T09:24:20;19.85;;;12.77;;
30647;SDS011;17683;53.360;9.736;2024-02-21T09:26:46;19.85;;;13.85;;
30647;SDS011;17683;53.360;9.736;2024-02-21T09:29:12;21.52;;;14.50;;
30647;SDS011;17683;53.360;9.736;2024-02-21T09:31:38;21.58;;;14.07;;
30647;SDS011;17683;53.360;9.736;2024-02-21T09:34:04;21.38;;;15.23;;
30647;SDS011;17683;53.360;9.736;2024-02-21T09:36:30;24.25;;;17.15;;
30647;SDS011;17683;53.360;9.736;2024-02-21T09:38:56;30.35;;;17.05;;
30647;SDS011;17683;53.360;9.736;2024-02-21T09:41:25;28.02;;;17.17;;
30647;SDS011;17683;53.360;9.736;2024-02-21T09:43:54;31.45;;;18.08;;
30647;SDS011;17683;53.360;9.736;2024-02-21T09:46:21;37.05;;;20.15;;
30647;SDS011;17683;53.360;9.736;2024-02-21T09:49:32;28.50;;;18.17;;
30647;SDS011;17683;53.360;9.736;2024-02-21T09:52:03;30.00;;;19.45;;
30647;SDS011;17683;53.360;9.736;2024-02-21T09:54:32;34.70;;;19.90;;
30647;SDS011;17683;53.360;9.736;2024-02-21T09:57:02;40.80;;;21.40;;
30647;SDS011;17683;53.360;9.736;2024-02-21T09:59:30;30.90;;;19.48;;
30647;SDS011;17683;53.360;9.736;2024-02-21T10:01:57;34.88;;;20.83;;
30647;SDS011;17683;53.360;9.736;2024-02-21T10:04:25;37.30;;;20.10;;
30647;SDS011;17683;53.360;9.736;2024-02-21T10:06:53;37.67;;;20.17;;
30647;SDS011;17683;53.360;9.736;2024-02-21T10:09:20;37.08;;;19.73;;
30647;SDS011;17683;53.360;9.736;2024-02-21T10:11:48;29.42;;;19.13;;
30647;SDS011;17683;53.360;9.736;2024-02-21T10:14:15;32.83;;;18.90;;
30647;SDS011;17683;53.360;9.736;2024-02-21T10:16:41;40.92;;;19.42;;
30647;SDS011;17683;53.360;9.736;2024-02-21T10:19:15;28.92;;;18.88;;
30647;SDS011;17683;53.360;9.736;2024-02-21T10:22:07;27.58;;;16.98;;
30647;SDS011;17683;53.360;9.736;2024-02-21T10:24:33;31.45;;;18.02;;
30647;SDS011;17683;53.360;9.736;2024-02-21T10:27:08;33.30;;;18.38;;
30647;SDS011;17683;53.360;9.736;2024-02-21T10:29:37;30.08;;;17.75;;
30647;SDS011;17683;53.360;9.736;2024-02-21T10:32:13;29.13;;;17.70;;
30647;SDS011;17683;53.360;9.736;2024-02-21T10:34:41;30.20;;;17.88;;
30647;SDS011;17683;53.360;9.736;2024-02-21T10:37:09;31.58;;;16.25;;
30647;SDS011;17683;53.360;9.736;2024-02-21T10:39:41;31.52;;;16.73;;
30647;SDS011;17683;53.360;9.736;2024-02-21T10:42:12;29.63;;;15.55;;
30647;SDS011;17683;53.360;9.736;2024-02-21T10:44:41;29.25;;;16.48;;
30647;SDS011;17683;53.360;9.736;2024-02-21T10:47:10;24.05;;;14.52;;
30647;SDS011;17683;53.360;9.736;2024-02-21T10:49:41;22.48;;;14.13;;
30647;SDS011;17683;53.360;9.736;2024-02-21T10:58:04;26.60;;;14.20;;
30647;SDS011;17683;53.360;9.736;2024-02-21T11:00:30;27.33;;;14.20;;
30647;SDS011;17683;53.360;9.736;2024-02-21T11:02:58;24.35;;;14.23;;
30647;SDS011;17683;53.360;9.736;2024-02-21T11:05:24;25.00;;;13.82;;
30647;SDS011;17683;53.360;9.736;2024-02-21T11:07:52;21.92;;;14.10;;
30647;SDS011;17683;53.360;9.736;2024-02-21T11:10:25;29.05;;;14.68;;
30647;SDS011;17683;53.360;9.736;2024-02-21T11:13:07;32.83;;;15.05;;
30647;SDS011;17683;53.360;9.736;2024-02-21T11:15:33;25.48;;;15.93;;
30647;SDS011;17683;53.360;9.736;2024-02-21T11:17:59;21.95;;;14.65;;
30647;SDS011;17683;53.360;9.736;2024-02-21T11:20:34;26.10;;;15.43;;
30647;SDS011;17683;53.360;9.736;2024-02-21T11:23:01;34.70;;;15.80;;
30647;SDS011;17683;53.360;9.736;2024-02-21T11:25:30;29.95;;;15.15;;
30647;SDS011;17683;53.360;9.736;2024-02-21T11:28:03;26.52;;;16.23;;
30647;SDS011;17683;53.360;9.736;2024-02-21T11:30:30;27.70;;;16.67;;
30647;SDS011;17683;53.360;9.736;2024-02-21T11:33:03;23.02;;;15.00;;
30647;SDS011;17683;53.360;9.736;2024-02-21T11:35:31;29.25;;;16.35;;
30647;SDS011;17683;53.360;9.736;2024-02-21T11:38:07;24.33;;;15.98;;
30647;SDS011;17683;53.360;9.736;2024-02-21T11:40:35;23.58;;;13.98;;
30647;SDS011;17683;53.360;9.736;2024-02-21T11:43:03;25.05;;;16.08;;
30647;SDS011;17683;53.360;9.736;2024-02-21T11:45:29;28.92;;;17.40;;
30647;SDS011;17683;53.360;9.736;2024-02-21T11:47:57;26.63;;;16.95;;
30647;SDS011;17683;53.360;9.736;2024-02-21T11:50:30;28.67;;;16.27;;
30647;SDS011;17683;53.360;9.736;2024-02-21T11:52:57;24.33;;;14.95;;
30647;SDS011;17683;53.360;9.736;2024-02-21T11:55:23;28.20;;;17.08;;
30647;SDS011;17683;53.360;9.736;2024-02-21T11:57:49;26.92;;;16.63;;
30647;SDS011;17683;53.360;9.736;2024-02-21T12:00:15;27.90;;;16.67;;
30647;SDS011;17683;53.360;9.736;2024-02-21T12:02:43;30.75;;;16.55;;
30647;SDS011;17683;53.360;9.736;2024-02-21T12:05:10;32.35;;;17.73;;
30647;SDS011;17683;53.360;9.736;2024-02-21T12:07:36;28.15;;;16.52;;
30647;SDS011;17683;53.360;9.736;2024-02-21T12:10:08;24.77;;;16.65;;
30647;SDS011;17683;53.360;9.736;2024-02-21T12:12:35;25.85;;;16.17;;
30647;SDS011;17683;53.360;9.736;2024-02-21T12:15:03;28.73;;;16.55;;
30647;SDS011;17683;53.360;9.736;2024-02-21T12:17:32;29.75;;;16.75;;
30647;SDS011;17683;53.360;9.736;2024-02-21T12:20:00;29.45;;;16.65;;
30647;SDS011;17683;53.360;9.736;2024-02-21T12:22:26;32.08;;;15.98;;
30647;SDS011;17683;53.360;9.736;2024-02-21T12:24:53;29.85;;;16.63;;
30647;SDS011;17683;53.360;9.736;2024-02-21T12:27:22;29.85;;;15.43;;
30647;SDS011;17683;53.360;9.736;2024-02-21T12:29:48;27.92;;;15.88;;
30647;SDS011;17683;53.360;9.736;2024-02-21T12:32:14;28.55;;;15.07;;
30647;SDS011;17683;53.360;9.736;2024-02-21T12:34:40;25.70;;;14.77;;
30647;SDS011;17683;53.360;9.736;2024-02-21T12:37:06;29.38;;;16.13;;
30647;SDS011;17683;53.360;9.736;2024-02-21T12:39:32;29.02;;;16.35;;
30647;SDS011;17683;53.360;9.736;2024-02-21T12:41:58;26.50;;;15.60;;
30647;SDS011;17683;53.360;9.736;2024-02-21T12:44:24;28.38;;;15.55;;
30647;SDS011;17683;53.360;9.736;2024-02-21T12:46:49;22.67;;;13.98;;
30647;SDS011;17683;53.360;9.736;2024-02-21T12:49:19;24.17;;;14.32;;
30647;SDS011;17683;53.360;9.736;2024-02-21T12:51:45;23.02;;;13.80;;
30647;SDS011;17683;53.360;9.736;2024-02-21T12:54:14;26.95;;;13.63;;
30647;SDS011;17683;53.360;9.736;2024-02-21T12:56:40;22.08;;;14.23;;
30647;SDS011;17683;53.360;9.736;2024-02-21T12:59:06;20.98;;;13.00;;
30647;SDS011;17683;53.360;9.736;2024-02-21T13:01:38;25.42;;;13.85;;
30647;SDS011;17683;53.360;9.736;2024-02-21T13:04:04;24.25;;;13.35;;
30647;SDS011;17683;53.360;9.736;2024-02-21T13:06:34;24.77;;;11.43;;
30647;SDS011;17683;53.360;9.736;2024-02-21T13:09:01;20.63;;;11.52;;
30647;SDS011;17683;53.360;9.736;2024-02-21T13:11:29;16.67;;;11.02;;
30647;SDS011;17683;53.360;9.736;2024-02-21T13:13:56;21.05;;;12.23;;
30647;SDS011;17683;53.360;9.736;2024-02-21T13:16:22;25.33;;;12.43;;
30647;SDS011;17683;53.360;9.736;2024-02-21T13:18:48;19.75;;;11.90;;
30647;SDS011;17683;53.360;9.736;2024-02-21T13:21:14;21.17;;;11.98;;
30647;SDS011;17683;53.360;9.736;2024-02-21T13:23:40;20.85;;;11.75;;
30647;SDS011;17683;53.360;9.736;2024-02-21T13:26:06;18.13;;;11.93;;
30647;SDS011;17683;53.360;9.736;2024-02-21T13:28:32;19.58;;;11.55;;
30647;SDS011;17683;53.360;9.736;2024-02-21T13:30:57;25.40;;;11.55;;
30647;SDS011;17683;53.360;9.736;2024-02-21T13:33:23;19.42;;;11.25;;
30647;SDS011;17683;53.360;9.736;2024-02-21T13:35:49;16.77;;;10.80;;
30647;SDS011;17683;53.360;9.736;2024-02-21T13:38:15;21.70;;;10.70;;
30647;SDS011;17683;53.360;9.736;2024-02-21T13:40:40;20.98;;;11.27;;
30647;SDS011;17683;53.360;9.736;2024-02-21T13:43:07;20.73;;;11.45;;
30647;SDS011;17683;53.360;9.736;2024-02-21T13:45:33;19.10;;;9.98;;
30647;SDS011;17683;53.360;9.736;2024-02-21T13:47:59;17.45;;;10.75;;
30647;SDS011;17683;53.360;9.736;2024-02-21T13:50:29;16.30;;;9.52;;
30647;SDS011;17683;53.360;9.736;2024-02-21T13:52:56;12.60;;;8.60;;
30647;SDS011;17683;53.360;9.736;2024-02-21T13:55:22;18.65;;;9.52;;
30647;SDS011;17683;53.360;9.736;2024-02-21T13:57:51;13.65;;;8.45;;
30647;SDS011;17683;53.360;9.736;2024-02-21T14:00:17;14.27;;;9.18;;
30647;SDS011;17683;53.360;9.736;2024-02-21T14:02:43;17.42;;;8.30;;
30647;SDS011;17683;53.360;9.736;2024-02-21T14:05:09;14.18;;;7.80;;
30647;SDS011;17683;53.360;9.736;2024-02-21T14:07:35;10.82;;;7.70;;
30647;SDS011;17683;53.360;9.736;2024-02-21T14:10:01;11.98;;;8.07;;
30647;SDS011;17683;53.360;9.736;2024-02-21T14:12:28;12.73;;;7.18;;
30647;SDS011;17683;53.360;9.736;2024-02-21T14:14:54;12.45;;;7.15;;
30647;SDS011;17683;53.360;9.736;2024-02-21T14:17:23;10.13;;;7.22;;
30647;SDS011;17683;53.360;9.736;2024-02-21T14:19:52;12.23;;;6.65;;
30647;SDS011;17683;53.360;9.736;2024-02-21T14:22:18;14.05;;;7.47;;
30647;SDS011;17683;53.360;9.736;2024-02-21T14:24:45;15.52;;;6.63;;
30647;SDS011;17683;53.360;9.736;2024-02-21T14:27:10;9.75;;;6.30;;
30647;SDS011;17683;53.360;9.736;2024-02-21T14:29:37;13.40;;;6.68;;
30647;SDS011;17683;53.360;9.736;2024-02-21T14:32:03;14.52;;;6.88;;